createdAt,value
2023-01-03T00:01:55.083Z,1.45
2023-01-03T00:04:24.326Z,1.46
2023-01-03T00:06:54.630Z,1.36
2023-01-03T00:09:25.631Z,1.33
2023-01-03T00:12:13.827Z,1.44
2023-01-03T00:14:45.031Z,1.44
2023-01-03T00:17:14.485Z,1.48
2023-01-03T00:19:45.626Z,1.44
2023-01-03T00:22:17.045Z,1.49
2023-01-03T00:24:47.913Z,1.49
2023-01-03T00:27:18.634Z,1.48
2023-01-03T00:29:47.800Z,1.47
2023-01-03T00:32:17.384Z,1.53
2023-01-03T00:34:47.725Z,1.57
2023-01-03T00:37:17.303Z,1.61
2023-01-03T00:39:46.384Z,1.63
2023-01-03T00:42:15.479Z,1.72
2023-01-03T00:44:45.990Z,1.75
2023-01-03T00:47:15.066Z,1.76
2023-01-03T00:49:44.134Z,1.56
2023-01-03T00:52:13.232Z,1.54
2023-01-03T00:54:42.303Z,1.58
2023-01-03T00:57:11.397Z,1.70
2023-01-03T00:59:41.218Z,1.54
2023-01-03T01:02:11.986Z,1.46
2023-01-03T01:04:41.281Z,1.36
2023-01-03T01:07:10.485Z,1.44
2023-01-03T01:09:39.914Z,1.37
2023-01-03T01:12:09.262Z,1.42
2023-01-03T01:14:38.427Z,1.43
2023-01-03T01:17:11.112Z,1.41
2023-01-03T01:19:44.141Z,1.38
2023-01-03T01:22:13.604Z,1.45
2023-01-03T01:24:42.909Z,1.38
2023-01-03T01:27:12.052Z,1.49
2023-01-03T01:29:41.305Z,1.51
2023-01-03T01:32:11.861Z,1.52
2023-01-03T01:34:41.275Z,1.43
2023-01-03T01:37:10.422Z,1.47
2023-01-03T01:39:39.545Z,1.54
2023-01-03T01:42:31.625Z,1.53
2023-01-03T01:45:02.615Z,1.49
2023-01-03T01:47:42.518Z,1.43
2023-01-03T01:50:23.335Z,1.48
2023-01-03T01:52:57.297Z,1.49
2023-01-03T01:55:31.647Z,1.47
2023-01-03T01:58:02.700Z,1.54
2023-01-03T02:00:32.103Z,1.45
2023-01-03T02:03:02.926Z,1.45
2023-01-03T02:05:35.820Z,1.41
2023-01-03T02:08:05.568Z,1.40
2023-01-03T02:10:58.073Z,1.37
2023-01-03T02:13:34.987Z,1.41
2023-01-03T02:16:30.420Z,1.44
2023-01-03T02:19:29.899Z,1.50
2023-01-03T02:22:38.604Z,1.49
2023-01-03T02:26:07.624Z,1.49
2023-01-03T02:29:21.648Z,1.55
2023-01-03T02:32:02.404Z,1.58
2023-01-03T02:34:41.385Z,1.68
2023-01-03T02:37:21.220Z,1.60
2023-01-03T02:39:59.780Z,1.65
2023-01-03T02:42:53.285Z,1.61
2023-01-03T02:45:47.009Z,1.70
2023-01-03T02:48:29.737Z,1.57
2023-01-03T02:51:04.039Z,1.71
2023-01-03T02:53:39.805Z,1.56
2023-01-03T02:56:13.806Z,1.57
2023-01-03T02:58:47.612Z,1.46
2023-01-03T03:01:19.959Z,1.53
2023-01-03T03:03:50.553Z,1.47
2023-01-03T03:06:27.391Z,1.46
2023-01-03T03:08:56.494Z,1.46
2023-01-03T03:11:47.252Z,1.52
2023-01-03T03:14:24.513Z,1.50
2023-01-03T03:16:56.196Z,1.46
2023-01-03T03:19:48.495Z,1.57
2023-01-03T03:22:47.774Z,1.45
2023-01-03T03:25:22.179Z,1.35
2023-01-03T03:28:12.721Z,1.43
2023-01-03T03:30:45.475Z,1.29
2023-01-03T03:33:17.544Z,1.28
2023-01-03T03:35:54.780Z,1.22
2023-01-03T03:38:27.609Z,1.15
2023-01-03T03:41:23.732Z,1.26
2023-01-03T03:44:20.052Z,1.13
2023-01-03T03:46:56.917Z,1.21
2023-01-03T03:49:41.287Z,1.12
2023-01-03T03:52:18.329Z,1.08
2023-01-03T03:54:54.769Z,0.93
2023-01-03T03:57:30.546Z,1.00
2023-01-03T04:00:05.905Z,0.97
2023-01-03T04:02:43.555Z,0.84
2023-01-03T04:05:16.987Z,0.82
2023-01-03T04:07:48.247Z,0.83
2023-01-03T04:10:20.421Z,0.76
2023-01-03T04:12:51.125Z,0.68
2023-01-03T04:15:21.057Z,0.57
2023-01-03T04:17:50.077Z,0.63
2023-01-03T04:20:20.019Z,0.55
2023-01-03T04:22:50.596Z,0.43
2023-01-03T04:25:19.665Z,0.35
2023-01-03T04:27:48.886Z,0.29
2023-01-03T04:30:18.204Z,0.39
2023-01-03T04:32:47.354Z,0.34
2023-01-03T04:35:16.666Z,0.32
2023-01-03T04:37:45.895Z,0.32
2023-01-03T04:40:16.572Z,0.39
2023-01-03T04:43:03.292Z,0.31
2023-01-03T04:45:32.523Z,0.28
2023-01-03T04:48:02.535Z,0.30
2023-01-03T04:50:31.981Z,0.37
2023-01-03T04:53:01.214Z,0.32
2023-01-03T04:55:31.710Z,0.32
2023-01-03T04:58:00.973Z,0.27
2023-01-03T05:00:30.141Z,0.27
2023-01-03T05:02:59.305Z,0.26
2023-01-03T05:05:28.463Z,0.38
2023-01-03T05:07:57.626Z,0.32
2023-01-03T05:10:26.719Z,0.27
2023-01-03T05:13:02.264Z,0.32
2023-01-03T05:15:34.114Z,0.33
2023-01-03T05:18:04.042Z,0.30
2023-01-03T05:20:50.608Z,0.26
2023-01-03T05:23:37.806Z,0.37
2023-01-03T05:26:11.496Z,0.43
2023-01-03T05:28:44.515Z,0.25
2023-01-03T05:31:13.917Z,0.26
2023-01-03T05:33:43.736Z,0.18
2023-01-03T05:36:12.894Z,0.16
2023-01-03T05:38:42.196Z,0.15
2023-01-03T05:41:11.732Z,0.16
2023-01-03T05:43:43.320Z,0.22
2023-01-03T05:46:12.659Z,0.16
2023-01-03T05:48:42.867Z,0.22
2023-01-03T05:51:12.023Z,0.43
2023-01-03T05:53:41.097Z,0.29
2023-01-03T05:56:11.133Z,0.36
2023-01-03T05:58:40.159Z,0.40
2023-01-03T06:01:12.771Z,0.43
2023-01-03T06:03:45.945Z,0.45
2023-01-03T06:06:17.095Z,0.28
2023-01-03T06:08:46.508Z,0.17
2023-01-03T06:11:17.297Z,0.15
2023-01-03T06:13:46.646Z,0.06
2023-01-03T06:16:36.100Z,0.09
2023-01-03T06:19:07.648Z,0.10
2023-01-03T06:21:37.783Z,0.08
2023-01-03T06:24:07.521Z,0.13
2023-01-03T06:26:36.761Z,0.16
2023-01-03T06:29:06.488Z,0.08
2023-01-03T06:31:37.044Z,0.04
2023-01-03T06:34:06.233Z,0.04
2023-01-03T06:36:36.673Z,0.06
2023-01-03T06:39:06.064Z,0.17
2023-01-03T06:41:35.168Z,0.24
2023-01-03T06:44:04.490Z,0.22
2023-01-03T06:46:50.923Z,0.17
2023-01-03T06:49:39.131Z,0.28
2023-01-03T06:52:38.198Z,0.31
2023-01-03T06:55:08.830Z,0.42
2023-01-03T06:57:37.991Z,0.48
2023-01-03T07:00:08.776Z,0.61
2023-01-03T07:02:38.154Z,0.49
2023-01-03T07:05:10.437Z,0.57
2023-01-03T07:07:40.076Z,0.60
2023-01-03T07:10:10.497Z,0.83
2023-01-03T07:12:56.938Z,0.75
2023-01-03T07:15:26.207Z,0.79
2023-01-03T07:17:56.795Z,0.80
2023-01-03T07:20:27.377Z,0.89
2023-01-03T07:22:56.574Z,0.92
2023-01-03T07:25:25.727Z,1.01
2023-01-03T07:28:03.613Z,1.06
2023-01-03T07:30:39.870Z,1.02
2023-01-03T07:33:10.135Z,1.00
2023-01-03T07:35:41.105Z,1.00
2023-01-03T07:38:12.345Z,1.06
2023-01-03T07:40:42.228Z,1.20
2023-01-03T07:43:30.560Z,1.14
2023-01-03T07:46:00.001Z,1.11
2023-01-03T07:48:29.277Z,1.05
2023-01-03T07:51:00.734Z,1.06
2023-01-03T07:53:30.255Z,1.22
2023-01-03T07:56:12.911Z,1.25
2023-01-03T07:58:45.366Z,1.37
2023-01-03T08:01:18.007Z,1.33
2023-01-03T08:03:48.285Z,1.40
2023-01-03T08:06:24.318Z,1.51
2023-01-03T08:09:08.117Z,1.62
2023-01-03T08:11:54.879Z,1.71
2023-01-03T08:14:26.482Z,1.79
2023-01-03T08:16:56.689Z,1.95
2023-01-03T08:19:26.472Z,2.05
2023-01-03T08:21:56.934Z,2.10
2023-01-03T08:24:25.984Z,2.10
2023-01-03T08:26:55.072Z,2.16
2023-01-03T08:29:24.159Z,2.24
2023-01-03T08:31:57.208Z,2.22
2023-01-03T08:34:31.884Z,2.27
2023-01-03T08:37:07.762Z,2.26
2023-01-03T08:39:42.316Z,2.32
2023-01-03T08:42:13.802Z,2.23
2023-01-03T08:44:45.243Z,2.24
2023-01-03T08:47:16.039Z,2.27
2023-01-03T08:49:45.618Z,2.31
2023-01-03T08:52:16.341Z,2.37
2023-01-03T08:54:45.709Z,2.35
2023-01-03T08:57:14.978Z,2.48
2023-01-03T08:59:44.198Z,2.59
2023-01-03T09:02:13.619Z,2.57
2023-01-03T09:04:42.968Z,2.54
2023-01-03T09:07:12.395Z,2.63
2023-01-03T09:09:42.931Z,2.67
2023-01-03T09:12:12.237Z,2.71
2023-01-03T09:14:41.338Z,2.76
2023-01-03T09:17:10.455Z,2.75
2023-01-03T09:19:39.869Z,2.66
2023-01-03T09:22:08.977Z,2.80
2023-01-03T09:24:38.125Z,2.90
2023-01-03T09:27:08.539Z,2.95
2023-01-03T09:29:37.860Z,3.07
2023-01-03T09:32:07.220Z,3.05
2023-01-03T09:34:36.847Z,3.15
2023-01-03T09:37:06.047Z,3.08
2023-01-03T09:39:35.297Z,3.13
2023-01-03T09:42:24.138Z,3.17
2023-01-03T09:44:55.783Z,3.22
2023-01-03T09:47:27.950Z,3.27
2023-01-03T09:50:27.702Z,3.36
2023-01-03T09:53:05.736Z,3.39
2023-01-03T09:56:04.382Z,3.44
2023-01-03T09:58:51.871Z,3.55
2023-01-03T10:02:05.636Z,3.73
2023-01-03T10:05:03.630Z,3.70
2023-01-03T10:07:57.897Z,3.80
2023-01-03T10:10:40.056Z,3.89
2023-01-03T10:13:20.930Z,3.96
2023-01-03T10:15:59.932Z,3.95
2023-01-03T10:18:51.190Z,3.91
2023-01-03T10:21:31.863Z,3.91
2023-01-03T10:24:01.483Z,3.94
2023-01-03T10:26:34.523Z,3.82
2023-01-03T10:29:03.642Z,3.80
2023-01-03T10:31:48.156Z,3.90
2023-01-03T10:34:18.659Z,3.93
2023-01-03T10:36:47.897Z,3.94
2023-01-03T10:39:31.299Z,3.96
2023-01-03T10:42:01.889Z,3.98
2023-01-03T10:44:33.965Z,4.01
2023-01-03T10:47:17.432Z,4.00
2023-01-03T10:49:48.802Z,4.02
2023-01-03T10:52:22.912Z,3.92
2023-01-03T10:54:55.150Z,3.90
2023-01-03T10:57:46.162Z,3.96
2023-01-03T11:00:34.147Z,3.92
2023-01-03T11:03:12.305Z,4.04
2023-01-03T11:05:45.503Z,4.07
2023-01-03T11:08:22.698Z,4.07
2023-01-03T11:10:57.548Z,4.15
2023-01-03T11:13:34.558Z,4.23
2023-01-03T11:16:14.082Z,4.32
2023-01-03T11:18:44.894Z,4.34
2023-01-03T11:21:28.141Z,4.43
2023-01-03T11:24:16.299Z,4.50
2023-01-03T11:26:52.227Z,4.58
2023-01-03T11:29:54.457Z,4.68
2023-01-03T11:32:37.418Z,4.76
2023-01-03T11:35:53.607Z,4.73
2023-01-03T11:38:43.398Z,4.77
2023-01-03T11:41:57.353Z,4.78
2023-01-03T11:45:10.473Z,4.71
2023-01-03T11:47:52.232Z,4.66
2023-01-03T11:50:33.737Z,4.60
2023-01-03T11:53:08.161Z,4.54
2023-01-03T11:56:06.015Z,4.54
2023-01-03T11:59:11.324Z,4.51
2023-01-03T12:02:28.700Z,4.46
2023-01-03T12:05:18.435Z,4.46
2023-01-03T12:08:00.885Z,4.44
2023-01-03T12:10:43.494Z,4.38
2023-01-03T12:13:29.914Z,4.40
2023-01-03T12:16:05.695Z,4.41
2023-01-03T12:18:45.931Z,4.41
2023-01-03T12:21:21.843Z,4.41
2023-01-03T12:23:58.394Z,4.40
2023-01-03T12:26:30.557Z,4.37
2023-01-03T12:29:10.348Z,4.34
2023-01-03T12:31:47.004Z,4.32
2023-01-03T12:34:26.359Z,4.34
2023-01-03T12:37:15.095Z,4.39
2023-01-03T12:39:55.473Z,4.53
2023-01-03T12:42:34.827Z,4.45
2023-01-03T12:45:34.819Z,4.63
2023-01-03T12:48:18.643Z,4.45
2023-01-03T12:50:51.772Z,4.43
2023-01-03T12:53:29.815Z,4.38
2023-01-03T12:56:35.055Z,4.42
2023-01-03T12:59:21.067Z,4.42
2023-01-03T13:01:59.020Z,4.37
2023-01-03T13:04:36.537Z,4.34
2023-01-03T13:07:15.380Z,4.36
2023-01-03T13:09:53.816Z,4.37
2023-01-03T13:12:30.276Z,4.31
2023-01-03T13:15:17.902Z,4.26
2023-01-03T13:17:50.495Z,4.26
2023-01-03T13:20:36.399Z,4.36
2023-01-03T13:23:35.964Z,4.42
2023-01-03T13:26:27.651Z,4.37
2023-01-03T13:29:44.989Z,4.39
2023-01-03T13:32:25.816Z,4.46
2023-01-03T13:35:37.407Z,4.51
2023-01-03T13:38:26.757Z,4.45
2023-01-03T13:41:18.170Z,4.37
2023-01-03T13:43:51.710Z,4.33
2023-01-03T13:46:24.858Z,4.36
2023-01-03T13:48:58.795Z,4.42
2023-01-03T13:51:50.051Z,4.51
2023-01-03T13:55:08.879Z,4.47
2023-01-03T13:57:54.534Z,4.54
2023-01-03T14:00:25.415Z,4.48
2023-01-03T14:03:35.789Z,4.45
2023-01-03T14:06:39.894Z,4.45
2023-01-03T14:09:54.807Z,4.44
2023-01-03T14:13:17.480Z,4.35
2023-01-03T14:15:48.123Z,4.36
2023-01-03T14:18:25.457Z,4.39
2023-01-03T14:20:56.201Z,4.41
2023-01-03T14:26:19.997Z,4.62
2023-01-03T14:28:52.216Z,4.64
2023-01-03T14:31:24.332Z,4.66
2023-01-03T14:33:58.013Z,4.55
2023-01-03T14:36:27.617Z,4.44
2023-01-03T14:38:58.904Z,4.43
2023-01-03T14:41:33.902Z,4.37
2023-01-03T14:44:07.844Z,4.38
2023-01-03T14:46:38.154Z,4.43
2023-01-03T14:49:21.860Z,4.35
2023-01-03T14:51:52.029Z,4.30
2023-01-03T14:54:21.479Z,4.41
2023-01-03T14:56:52.143Z,4.55
2023-01-03T14:59:24.337Z,4.42
2023-01-03T15:01:54.513Z,4.37
2023-01-03T15:04:25.586Z,4.34
2023-01-03T15:07:11.290Z,4.30
2023-01-03T15:09:44.788Z,4.33
2023-01-03T15:12:17.398Z,4.25
2023-01-03T15:14:46.540Z,4.30
2023-01-03T15:17:19.648Z,4.46
2023-01-03T15:19:54.202Z,4.52
2023-01-03T15:22:31.650Z,4.47
2023-01-03T15:25:08.654Z,4.42
2023-01-03T15:27:47.124Z,4.43
2023-01-03T15:30:26.826Z,4.45
2023-01-03T15:33:05.153Z,4.44
2023-01-03T15:35:39.340Z,4.46
2023-01-03T15:38:22.317Z,4.54
2023-01-03T15:40:52.219Z,4.60
2023-01-03T15:43:28.932Z,4.52
2023-01-03T15:46:04.504Z,4.45
2023-01-03T15:48:36.259Z,4.46
2023-01-03T15:51:07.124Z,4.50
2023-01-03T15:53:43.721Z,4.45
2023-01-03T15:56:18.747Z,4.44
2023-01-03T15:58:52.960Z,4.55
2023-01-03T16:01:24.303Z,4.58
2023-01-03T16:03:55.517Z,4.49
2023-01-03T16:06:24.950Z,4.54
2023-01-03T16:08:55.999Z,4.59
2023-01-03T16:11:33.749Z,4.62
2023-01-03T16:14:13.003Z,4.62
2023-01-03T16:16:45.619Z,4.50
2023-01-03T16:19:21.193Z,4.44
2023-01-03T16:22:32.851Z,4.44
2023-01-03T16:24:44.145Z,4.39
2023-01-03T16:27:16.422Z,4.41
2023-01-03T16:29:47.390Z,4.51
2023-01-03T16:32:21.369Z,4.52
2023-01-03T16:34:53.523Z,4.53
2023-01-03T16:37:22.678Z,4.48
2023-01-03T16:39:51.981Z,4.42
2023-01-03T16:42:30.162Z,4.61
2023-01-03T16:45:00.848Z,4.58
2023-01-03T16:47:33.754Z,4.48
2023-01-03T16:50:07.370Z,4.53
2023-01-03T16:52:40.683Z,4.65
2023-01-03T16:55:17.863Z,4.63
2023-01-03T16:57:52.121Z,4.66
2023-01-03T17:00:28.269Z,4.61
2023-01-03T17:03:01.275Z,4.68
2023-01-03T17:05:35.750Z,4.74
2023-01-03T17:08:12.143Z,4.67
2023-01-03T17:10:43.724Z,4.66
2023-01-03T17:13:29.544Z,4.64
2023-01-03T17:16:01.602Z,4.68
2023-01-03T17:18:33.592Z,4.74
2023-01-03T17:21:10.412Z,4.75
2023-01-03T17:23:42.215Z,4.81
2023-01-03T17:26:15.821Z,4.79
2023-01-03T17:28:46.484Z,4.69
2023-01-03T17:31:20.337Z,4.64
2023-01-03T17:33:50.287Z,4.69
2023-01-03T17:36:25.570Z,4.71
2023-01-03T17:38:59.976Z,4.73
2023-01-03T17:41:29.853Z,4.68
2023-01-03T17:44:00.335Z,4.73
2023-01-03T17:46:57.931Z,4.90
2023-01-03T17:49:27.358Z,4.81
2023-01-03T17:52:01.711Z,4.83
2023-01-03T17:54:36.382Z,4.91
2023-01-03T17:57:06.480Z,4.87
2023-01-03T17:59:35.767Z,4.89
2023-01-03T18:02:18.737Z,4.85
2023-01-03T18:05:15.279Z,4.84
2023-01-03T18:07:39.125Z,4.88
2023-01-03T18:10:15.728Z,4.86
2023-01-03T18:12:45.454Z,4.79
2023-01-03T18:15:20.201Z,4.74
2023-01-03T18:17:51.111Z,4.75
2023-01-03T18:20:21.618Z,4.69
2023-01-03T18:22:51.588Z,4.72
2023-01-03T18:25:26.355Z,4.82
2023-01-03T18:28:00.958Z,4.88
2023-01-03T18:30:30.486Z,4.83
2023-01-03T18:33:01.237Z,4.78
2023-01-03T18:35:37.473Z,4.70
2023-01-03T18:38:07.626Z,4.73
2023-01-03T18:40:43.250Z,4.77
2023-01-03T18:43:15.088Z,4.75
2023-01-03T18:45:44.416Z,4.71
2023-01-03T18:48:17.707Z,4.80
2023-01-03T18:50:55.672Z,4.83
2023-01-03T18:53:32.335Z,4.87
2023-01-03T18:56:03.075Z,4.93
2023-01-03T18:58:36.679Z,4.85
2023-01-03T19:01:07.792Z,4.79
2023-01-03T19:03:42.816Z,4.73
2023-01-03T19:06:20.468Z,4.83
2023-01-03T19:08:50.375Z,4.86
2023-01-03T19:11:26.285Z,4.97
2023-01-03T19:14:00.192Z,4.97
2023-01-03T19:16:31.976Z,5.00
2023-01-03T19:19:03.738Z,5.02
2023-01-03T19:21:35.166Z,4.91
2023-01-03T19:24:09.030Z,4.85
2023-01-03T19:26:46.534Z,4.82
2023-01-03T19:29:20.166Z,4.80
2023-01-03T19:31:52.927Z,4.77
2023-01-03T19:34:26.139Z,4.86
2023-01-03T19:36:55.758Z,4.99
2023-01-03T19:39:26.741Z,5.02
2023-01-03T19:42:18.498Z,4.96
2023-01-03T19:44:48.865Z,5.00
2023-01-03T19:47:21.366Z,4.99
2023-01-03T19:49:52.733Z,4.96
2023-01-03T19:52:22.333Z,4.87
2023-01-03T19:54:53.590Z,4.86
2023-01-03T19:57:30.681Z,4.81
2023-01-03T20:00:02.056Z,4.82
2023-01-03T20:02:41.092Z,4.76
2023-01-03T20:05:24.875Z,4.71
2023-01-03T20:07:54.951Z,4.69
2023-01-03T20:10:28.229Z,4.75
2023-01-03T20:12:58.590Z,4.86
2023-01-03T20:15:31.231Z,4.79
2023-01-03T20:18:03.933Z,4.75
2023-01-03T20:20:35.165Z,4.75
2023-01-03T20:23:15.043Z,4.75
2023-01-03T20:25:46.192Z,4.75
2023-01-03T20:28:19.831Z,4.80
2023-01-03T20:30:53.221Z,4.81
2023-01-03T20:33:24.072Z,4.85
2023-01-03T20:36:22.753Z,4.80
2023-01-03T20:38:56.058Z,4.77
2023-01-03T20:41:36.748Z,4.74
2023-01-03T20:44:08.491Z,4.66
2023-01-03T20:46:41.030Z,4.63
2023-01-03T20:49:17.201Z,4.60
2023-01-03T20:51:48.176Z,4.62
2023-01-03T20:54:18.309Z,4.62
2023-01-03T20:56:49.493Z,4.60
2023-01-03T20:59:21.474Z,4.59
2023-01-03T21:01:52.187Z,4.62
2023-01-03T21:04:23.593Z,4.59
2023-01-03T21:06:54.875Z,4.55
2023-01-03T21:09:23.629Z,4.55
2023-01-03T21:11:53.321Z,4.52
2023-01-03T21:14:23.085Z,4.52
2023-01-03T21:16:52.943Z,4.45
2023-01-03T21:19:27.808Z,4.42
2023-01-03T21:22:02.736Z,4.40
2023-01-03T21:24:38.836Z,4.42
2023-01-03T21:27:09.203Z,4.50
2023-01-03T21:29:39.099Z,4.50
2023-01-03T21:32:12.902Z,4.52
2023-01-03T21:34:43.652Z,4.56
2023-01-03T21:37:15.247Z,4.63
2023-01-03T21:39:44.541Z,4.63
2023-01-03T21:42:32.696Z,4.68
2023-01-03T21:45:03.176Z,4.68
2023-01-03T21:47:32.978Z,4.80
2023-01-03T21:50:02.290Z,4.73
2023-01-03T21:52:33.490Z,4.72
2023-01-03T21:55:06.160Z,4.71
2023-01-03T21:57:35.455Z,4.62
2023-01-03T22:00:11.752Z,4.55
2023-01-03T22:03:00.475Z,4.50
2023-01-03T22:05:31.206Z,4.55
2023-01-03T22:08:03.506Z,4.61
2023-01-03T22:10:33.828Z,4.68
2023-01-03T22:13:06.129Z,4.67
2023-01-03T22:15:38.209Z,4.69
2023-01-03T22:18:11.230Z,4.82
2023-01-03T22:20:40.716Z,4.88
2023-01-03T22:23:16.978Z,4.77
2023-01-03T22:25:46.487Z,4.75
2023-01-03T22:28:15.905Z,4.71
2023-01-03T22:30:45.472Z,4.79
2023-01-03T22:33:15.168Z,4.71
2023-01-03T22:35:44.498Z,4.67
2023-01-03T22:38:15.231Z,4.63
2023-01-03T22:40:44.429Z,4.63
2023-01-03T22:43:13.616Z,4.63
2023-01-03T22:45:42.797Z,4.65
2023-01-03T22:48:12.072Z,4.69
2023-01-03T22:50:41.560Z,4.74
2023-01-03T22:53:13.562Z,4.83
2023-01-03T22:55:48.525Z,4.87
2023-01-03T22:58:17.931Z,4.87
2023-01-03T23:00:47.303Z,4.90
2023-01-03T23:03:16.807Z,4.82
2023-01-03T23:05:46.254Z,4.75
2023-01-03T23:08:15.739Z,4.68
2023-01-03T23:10:46.339Z,4.68
2023-01-03T23:13:14.470Z,4.83
2023-01-03T23:15:45.054Z,4.78
2023-01-03T23:18:14.160Z,4.79
2023-01-03T23:20:48.842Z,4.72
2023-01-03T23:23:18.152Z,4.68
2023-01-03T23:25:48.751Z,4.68
2023-01-03T23:28:18.349Z,4.69
2023-01-03T23:30:50.681Z,4.83
2023-01-03T23:33:20.256Z,4.86
2023-01-03T23:35:49.856Z,4.80
2023-01-03T23:38:19.089Z,4.78
2023-01-03T23:40:49.928Z,4.70
2023-01-03T23:43:19.125Z,4.67
2023-01-03T23:45:49.726Z,4.66
2023-01-03T23:48:19.091Z,4.73
2023-01-03T23:50:48.309Z,4.67
2023-01-03T23:53:17.469Z,4.66
2023-01-03T23:55:50.316Z,4.48
2023-01-03T23:58:19.786Z,4.44
